Time;durP1;ratioP1;P1;durP2;ratioP2;P2;SDS_P1;SDS_P2;PMS_P1;PMS_P2;Temp;Humidity;BMP_temperature;BMP_pressure;BME280_temperature;BME280_humidity;BME280_pressure;Samples;Min_cycle;Max_cycle;Signal;HPM_P1;HPM_P2
2022/03/28 00:01:27;;;;;;;;;39.75;32.75;;;;;17.01;33.27;101882.44;5055654;28;45380;-54
2022/03/28 00:03:52;;;;;;;;;45.50;34.75;;;;;17.05;33.52;101885.63;5055071;28;46578;-54
2022/03/28 00:06:18;;;;;;;;;34.00;31.00;;;;;17.05;33.31;101878.16;5054771;28;45315;-54
2022/03/28 00:08:44;;;;;;;;;36.00;32.50;;;;;17.01;33.70;101870.47;5055375;28;45394;-53
2022/03/28 00:11:09;;;;;;;;;39.00;30.00;;;;;16.86;34.01;101849.50;5037257;28;45453;-54
2022/03/28 00:13:35;;;;;;;;;34.50;31.25;;;;;17.06;33.87;101879.84;5023625;28;45641;-54
2022/03/28 00:16:01;;;;;;;;;44.20;33.00;;;;;16.86;34.11;101837.56;5058650;28;45394;-54
2022/03/28 00:18:26;;;;;;;;;34.00;28.75;;;;;17.04;34.52;101872.84;5058378;28;45476;-54
2022/03/28 00:20:53;;;;;;;;;34.75;32.25;;;;;17.05;34.77;101868.97;5058843;28;45438;-54
2022/03/28 00:23:22;;;;;;;;;35.20;31.00;;;;;16.83;34.75;101836.09;5040307;28;47818;-53
2022/03/28 00:25:48;;;;;;;;;37.60;31.00;;;;;16.85;35.01;101833.94;5040744;28;45373;-51
2022/03/28 00:28:13;;;;;;;;;34.75;30.25;;;;;17.02;35.30;101870.28;5057684;28;45314;-52
2022/03/28 00:30:40;;;;;;;;;38.25;29.25;;;;;17.02;35.21;101864.75;5041005;28;45254;-51
2022/03/28 00:33:05;;;;;;;;;38.00;33.00;;;;;17.00;35.42;101857.69;5057923;28;45591;-55
2022/03/28 00:35:31;;;;;;;;;12.75;9.50;;;;;16.91;35.93;101852.44;5058357;28;45413;-51
2022/03/28 00:37:57;;;;;;;;;37.25;32.00;;;;;17.01;36.02;101856.59;5058319;28;45416;-49
2022/03/28 00:40:23;;;;;;;;;38.00;30.00;;;;;16.62;36.30;101796.63;5058438;28;45424;-53
2022/03/28 00:42:49;;;;;;;;;35.00;32.20;;;;;16.97;36.46;101850.66;5058127;28;45450;-51
2022/03/28 00:45:15;;;;;;;;;38.75;29.75;;;;;16.91;36.66;101838.56;5057591;28;45456;-54
2022/03/28 00:47:41;;;;;;;;;38.75;31.00;;;;;16.91;36.90;101846.03;5056930;28;45420;-55
2022/03/28 00:50:07;;;;;;;;;33.40;26.80;;;;;16.86;37.22;101843.94;5057845;28;45609;-55
2022/03/28 00:52:33;;;;;;;;;31.40;26.00;;;;;16.62;37.53;101812.41;5057752;28;46626;-54
2022/03/28 00:54:59;;;;;;;;;40.75;30.50;;;;;16.84;37.25;101846.13;5039750;28;45593;-53
2022/03/28 00:57:24;;;;;;;;;40.25;31.75;;;;;16.77;37.64;101837.00;5056636;28;45295;-52
2022/03/28 00:59:50;;;;;;;;;38.25;32.00;;;;;16.65;37.93;101825.81;5058305;28;45608;-54
2022/03/28 01:02:15;;;;;;;;;27.50;20.25;;;;;16.72;37.85;101846.00;5039662;28;47229;-52
2022/03/28 01:04:41;;;;;;;;;34.25;30.00;;;;;16.39;38.23;101806.41;5057230;28;45342;-52
2022/03/28 01:07:07;;;;;;;;;36.75;31.75;;;;;16.59;38.44;101833.09;5057737;28;45399;-54
2022/03/28 01:09:33;;;;;;;;;35.25;28.00;;;;;16.65;38.46;101840.50;5053920;28;45514;-52
2022/03/28 01:11:59;;;;;;;;;32.40;29.60;;;;;16.66;38.76;101833.88;5038741;28;46389;-52
2022/03/28 01:14:26;;;;;;;;;43.75;33.75;;;;;16.65;38.84;101831.38;5053207;28;45419;-54
2022/03/28 01:19:46;;;;;;;;;39.20;29.80;;;;;16.63;38.97;101820.50;5010785;28;45581;-51
2022/03/28 01:22:12;;;;;;;;;34.75;31.25;;;;;16.60;39.34;101820.94;5038183;28;47768;-51
2022/03/28 01:24:37;;;;;;;;;36.00;31.00;;;;;16.59;39.44;101822.00;5057022;28;45328;-57
2022/03/28 01:27:04;;;;;;;;;37.00;31.00;;;;;16.56;39.78;101819.72;5022802;28;45393;-55
2022/03/28 01:29:29;;;;;;;;;32.40;31.20;;;;;16.56;39.52;101825.25;5057420;28;45752;-53
2022/03/28 01:31:55;;;;;;;;;35.50;33.50;;;;;16.46;39.93;101800.81;5055547;28;45397;-52
2022/03/28 01:34:21;;;;;;;;;32.25;27.50;;;;;16.52;39.89;101811.00;5056986;28;45458;-53
2022/03/28 01:36:48;;;;;;;;;38.25;33.50;;;;;16.49;40.03;101813.38;5057389;28;45719;-53
2022/03/28 01:39:14;;;;;;;;;32.60;29.20;;;;;16.47;40.11;101801.66;5039354;28;45509;-54
2022/03/28 01:41:40;;;;;;;;;36.20;33.40;;;;;16.47;40.55;101813.59;5056454;28;46401;-52
2022/03/28 01:44:06;;;;;;;;;35.75;31.75;;;;;16.41;40.58;101808.94;5056272;28;45724;-54
2022/03/28 01:46:38;;;;;;;;;35.50;32.00;;;;;16.35;41.33;101805.19;5057034;28;45347;-52
2022/03/28 01:49:04;;;;;;;;;33.80;30.40;;;;;16.35;40.93;101804.31;5037546;28;45457;-53
2022/03/28 01:51:31;;;;;;;;;42.00;34.50;;;;;16.26;41.62;101804.59;5040607;27;45575;-53
2022/03/28 01:53:59;;;;;;;;;41.20;34.20;;;;;16.22;41.36;101802.50;5055932;28;45376;-53
2022/03/28 01:56:25;;;;;;;;;39.20;32.40;;;;;16.24;41.22;101797.56;5056763;28;45359;-50
2022/03/28 01:58:51;;;;;;;;;41.25;35.25;;;;;16.22;41.66;101796.97;5039172;27;45663;-52
2022/03/28 02:01:16;;;;;;;;;42.25;34.25;;;;;16.02;41.56;101763.88;5052418;28;46640;-54
2022/03/28 02:03:42;;;;;;;;;41.00;34.00;;;;;16.23;41.95;101795.88;5055321;28;45504;-54
2022/03/28 02:06:08;;;;;;;;;45.25;35.00;;;;;16.19;42.09;101802.94;5052307;28;45422;-55
2022/03/28 02:08:37;;;;;;;;;43.60;35.80;;;;;16.16;42.14;101797.84;5036980;28;45317;-52
2022/03/28 02:11:03;;;;;;;;;43.20;34.20;;;;;16.13;42.23;101797.22;5054640;28;46172;-57
2022/03/28 02:13:28;;;;;;;;;48.50;37.75;;;;;16.07;42.29;101798.09;5055120;28;45351;-49
2022/03/28 02:15:54;;;;;;;;;44.25;35.25;;;;;16.08;42.87;101794.28;5055933;28;45263;-53
2022/03/28 02:18:20;;;;;;;;;46.25;35.75;;;;;16.09;42.78;101795.97;5054329;28;45558;-51
2022/03/28 02:20:45;;;;;;;;;43.75;33.75;;;;;16.05;43.10;101797.50;5055927;28;45807;-53
2022/03/28 02:23:11;;;;;;;;;48.00;36.75;;;;;16.03;43.42;101796.00;5049473;28;45730;-53
2022/03/28 02:25:38;;;;;;;;;44.50;36.25;;;;;15.99;43.64;101790.06;5055444;28;45348;-52
2022/03/28 02:28:04;;;;;;;;;49.40;38.40;;;;;15.74;43.50;101768.69;5055273;28;45414;-51
2022/03/28 02:30:30;;;;;;;;;39.75;34.00;;;;;15.91;43.70;101795.84;5053803;28;46299;-54
2022/03/28 02:32:57;;;;;;;;;46.25;35.25;;;;;15.84;44.41;101798.63;5070904;28;45357;-52
2022/03/28 02:35:23;;;;;;;;;44.00;37.00;;;;;15.56;44.63;101753.69;5053645;28;45377;-50
2022/03/28 02:37:48;;;;;;;;;42.00;34.00;;;;;15.40;44.41;101727.38;5050344;28;45860;-52
2022/03/28 02:40:14;;;;;;;;;42.75;36.50;;;;;15.77;44.41;101787.63;5036854;28;47383;-52
2022/03/28 02:42:39;;;;;;;;;40.75;36.25;;;;;15.84;44.60;101785.66;5055268;28;45416;-55
2022/03/28 02:45:05;;;;;;;;;47.25;35.50;;;;;15.83;44.94;101778.44;5054647;28;45437;-51
2022/03/28 02:47:31;;;;;;;;;49.60;40.40;;;;;15.80;44.49;101778.03;5055206;28;45474;-55
2022/03/28 02:49:57;;;;;;;;;47.50;36.50;;;;;15.70;44.74;101757.19;5046878;28;46025;-55
2022/03/28 02:52:22;;;;;;;;;43.50;32.00;;;;;15.82;44.91;101765.66;5035991;28;45796;-55
2022/03/28 02:54:48;;;;;;;;;40.50;34.25;;;;;15.79;45.40;101771.63;5055560;28;45361;-53
2022/03/28 02:57:14;;;;;;;;;41.75;35.25;;;;;15.67;45.78;101765.09;5055627;28;45453;-52
2022/03/28 02:59:40;;;;;;;;;48.80;38.20;;;;;15.59;46.47;101758.75;5069724;28;46153;-50
2022/03/28 03:02:06;;;;;;;;;37.75;31.75;;;;;15.55;45.85;101754.75;5054746;28;45761;-57
2022/03/28 03:04:31;;;;;;;;;50.75;38.50;;;;;15.57;46.02;101749.84;5053715;28;45487;-52
2022/03/28 03:06:57;;;;;;;;;47.50;37.75;;;;;15.60;46.05;101743.00;5053873;28;45602;-54
2022/03/28 03:09:23;;;;;;;;;42.25;35.50;;;;;15.48;45.95;101714.34;5047848;28;45473;-56
2022/03/28 03:11:49;;;;;;;;;48.75;36.50;;;;;15.69;45.86;101749.97;5063894;28;45466;-55
2022/03/28 03:14:14;;;;;;;;;42.75;35.25;;;;;15.73;45.92;101742.06;5063155;28;45313;-53
2022/03/28 03:16:40;;;;;;;;;48.75;37.25;;;;;15.71;46.32;101744.22;5065798;28;45559;-56
2022/03/28 03:19:06;;;;;;;;;42.20;32.40;;;;;15.69;46.30;101743.59;5065261;28;46774;-54
2022/03/28 03:21:32;;;;;;;;;49.00;34.00;;;;;15.43;46.53;101702.00;5064624;28;45501;-52
2022/03/28 03:23:57;;;;;;;;;46.00;35.25;;;;;15.51;46.29;101716.66;5065185;28;45396;-56
2022/03/28 03:26:23;;;;;;;;;44.00;37.00;;;;;15.45;46.04;101707.34;5061049;28;45520;-55
2022/03/28 03:28:48;;;;;;;;;41.50;34.00;;;;;15.57;46.06;101713.88;5071217;28;46244;-52
2022/03/28 03:31:14;;;;;;;;;50.50;38.75;;;;;15.67;46.33;101743.81;5056046;28;45347;-52
2022/03/28 03:33:40;;;;;;;;;52.00;40.60;;;;;15.59;46.26;101727.50;5055453;28;45369;-55
2022/03/28 03:36:06;;;;;;;;;47.75;37.25;;;;;15.65;46.71;101740.44;5071420;28;45580;-52
2022/03/28 03:38:32;;;;;;;;;46.20;37.60;;;;;15.55;46.98;101729.84;5037509;28;45467;-53
2022/03/28 03:40:57;;;;;;;;;49.50;39.25;;;;;15.59;46.75;101735.78;5055622;28;45374;-50
2022/03/28 03:43:25;;;;;;;;;44.75;37.25;;;;;15.56;46.57;101734.31;5055309;28;45341;-53
2022/03/28 03:45:50;;;;;;;;;48.20;40.60;;;;;15.54;47.27;101730.06;5055605;28;45308;-53
2022/03/28 03:48:16;;;;;;;;;50.25;38.50;;;;;15.54;47.28;101739.19;5055340;28;46257;-52
2022/03/28 03:50:41;;;;;;;;;45.50;38.00;;;;;15.21;47.44;101687.66;5054937;28;45462;-55
2022/03/28 03:53:07;;;;;;;;;52.00;39.00;;;;;15.37;48.27;101733.31;5055283;28;45434;-52
2022/03/28 03:55:33;;;;;;;;;48.75;39.25;;;;;15.17;47.98;101703.84;5017028;28;45561;-52
2022/03/28 03:57:58;;;;;;;;;52.50;39.25;;;;;15.42;47.50;101732.69;5052948;28;45658;-55
2022/03/28 04:00:24;;;;;;;;;52.75;40.25;;;;;15.40;48.13;101735.66;5053814;28;45442;-53
2022/03/28 04:02:50;;;;;;;;;52.50;41.75;;;;;15.40;48.52;101738.44;5055005;28;45849;-53
2022/03/28 04:05:16;;;;;;;;;47.75;38.00;;;;;15.11;48.22;101684.53;5036980;28;45600;-52
2022/03/28 04:07:42;;;;;;;;;49.60;38.40;;;;;15.35;48.69;101729.94;5036511;28;45692;-55
2022/03/28 04:10:08;;;;;;;;;56.00;42.50;;;;;15.32;49.01;101725.69;5054672;28;45371;-53
2022/03/28 04:12:33;;;;;;;;;50.75;41.25;;;;;15.31;49.00;101725.91;5054804;28;45345;-54
2022/03/28 04:15:00;;;;;;;;;47.75;39.50;;;;;15.29;48.84;101728.06;5054823;28;45442;-54
2022/03/28 04:17:28;;;;;;;;;45.60;37.00;;;;;15.06;48.71;101696.25;5054609;28;45573;-54
2022/03/28 04:19:54;;;;;;;;;52.80;41.00;;;;;15.26;49.12;101734.03;5054655;28;45330;-52
2022/03/28 04:22:19;;;;;;;;;52.40;42.00;;;;;15.25;49.26;101726.78;5054662;28;45350;-54
2022/03/28 04:24:45;;;;;;;;;53.50;40.00;;;;;15.25;49.55;101735.94;5053304;28;45513;-53
2022/03/28 04:27:11;;;;;;;;;56.25;39.00;;;;;15.24;49.24;101737.00;5054451;28;45791;-54
2022/03/28 04:29:37;;;;;;;;;55.25;41.75;;;;;15.04;49.97;101698.38;5054428;28;45366;-54
2022/03/28 04:32:02;;;;;;;;;55.75;40.75;;;;;15.25;49.80;101735.94;5036688;28;45449;-54
2022/03/28 04:34:28;;;;;;;;;54.50;40.25;;;;;15.26;49.61;101739.56;5054698;28;45429;-52
2022/03/28 04:36:53;;;;;;;;;47.25;38.75;;;;;15.23;49.58;101732.56;5054133;28;45554;-51
2022/03/28 04:39:19;;;;;;;;;50.50;40.50;;;;;15.18;50.00;101736.00;5054372;28;45375;-53
2022/03/28 04:41:44;;;;;;;;;55.00;42.75;;;;;14.85;49.85;101681.66;5054346;28;45404;-54
2022/03/28 04:44:10;;;;;;;;;49.75;40.00;;;;;15.17;49.53;101727.91;5054598;28;45350;-54
2022/03/28 04:46:35;;;;;;;;;47.00;37.25;;;;;15.14;50.02;101729.19;5054614;28;45539;-55
2022/03/28 04:49:01;;;;;;;;;51.50;40.75;;;;;15.14;50.14;101733.84;5054351;28;45500;-52
2022/03/28 04:51:26;;;;;;;;;46.25;39.25;;;;;15.14;50.12;101726.41;5036538;28;45418;-52
2022/03/28 04:53:52;;;;;;;;;48.25;39.00;;;;;15.14;49.91;101725.56;5054062;28;45703;-54
2022/03/28 04:56:17;;;;;;;;;49.75;40.75;;;;;15.16;49.57;101724.28;5054070;28;46686;-54
2022/03/28 04:58:43;;;;;;;;;47.50;38.25;;;;;15.13;50.42;101721.09;5056834;28;45467;-53
2022/03/28 05:01:08;;;;;;;;;53.00;43.25;;;;;15.12;50.08;101713.88;5057801;28;45434;-53
2022/03/28 05:03:34;;;;;;;;;48.50;41.25;;;;;15.15;50.50;101718.94;5058262;28;45923;-54
2022/03/28 05:06:00;;;;;;;;;56.00;43.00;;;;;15.14;50.06;101718.13;5057867;28;45522;-52
2022/03/28 05:08:25;;;;;;;;;48.25;38.00;;;;;15.15;50.62;101719.81;5057636;28;45389;-54
2022/03/28 05:10:51;;;;;;;;;52.25;41.25;;;;;14.90;50.49;101683.78;5058132;28;45415;-55
2022/03/28 05:13:16;;;;;;;;;55.00;42.25;;;;;15.11;50.48;101709.41;5057715;28;45571;-52
2022/03/28 05:15:42;;;;;;;;;52.00;41.75;;;;;14.97;51.17;101715.00;5039588;28;46318;-53
2022/03/28 05:18:07;;;;;;;;;53.25;42.00;;;;;14.84;51.57;101702.06;5044982;28;45385;-55
2022/03/28 05:20:33;;;;;;;;;53.75;41.00;;;;;14.83;51.47;101708.66;5034637;28;45446;-55
2022/03/28 05:22:58;;;;;;;;;54.75;41.75;;;;;14.90;51.55;101712.25;5057513;28;45530;-55
2022/03/28 05:25:24;;;;;;;;;54.25;43.25;;;;;14.84;52.19;101715.03;5039106;28;45836;-54
2022/03/28 05:27:50;;;;;;;;;51.50;41.25;;;;;14.69;51.28;101702.28;5057635;28;45272;-55
2022/03/28 05:30:17;;;;;;;;;54.50;43.00;;;;;14.80;52.07;101713.75;5057455;28;45638;-53
2022/03/28 05:32:43;;;;;;;;;55.75;44.00;;;;;14.56;52.31;101692.09;5057805;28;45780;-54
2022/03/28 05:35:08;;;;;;;;;57.50;43.50;;;;;14.71;52.26;101716.72;5057224;28;45992;-52
2022/03/28 05:37:34;;;;;;;;;56.00;42.25;;;;;14.67;52.37;101709.94;5057416;28;45740;-56
2022/03/28 05:40:00;;;;;;;;;50.75;39.75;;;;;14.64;52.31;101704.84;5057471;28;45734;-52
2022/03/28 05:42:25;;;;;;;;;54.75;40.25;;;;;14.81;51.97;101723.75;5057350;28;45507;-54
2022/03/28 05:44:51;;;;;;;;;53.75;42.25;;;;;14.81;52.35;101719.09;5039270;28;45926;-55
2022/03/28 05:47:16;;;;;;;;;56.50;42.75;;;;;14.75;52.16;101714.41;5057087;28;45919;-54
2022/03/28 05:49:42;;;;;;;;;51.00;41.25;;;;;14.81;52.01;101712.69;5057231;28;45410;-54
2022/03/28 05:52:08;;;;;;;;;54.75;43.00;;;;;14.83;52.18;101705.88;5039264;28;45558;-54
2022/03/28 05:54:34;;;;;;;;;54.25;41.25;;;;;14.78;51.90;101705.69;5056559;28;47102;-54
2022/03/28 05:56:59;;;;;;;;;52.50;40.50;;;;;14.69;51.95;101696.78;5057143;28;45512;-53
2022/03/28 05:59:25;;;;;;;;;54.00;41.25;;;;;14.73;52.25;101711.00;5057281;28;45383;-53
2022/03/28 06:01:51;;;;;;;;;51.25;41.25;;;;;14.68;52.39;101697.81;5056814;28;45330;-55
2022/03/28 06:04:17;;;;;;;;;59.50;43.00;;;;;14.70;52.64;101715.03;5038733;28;47690;-55
2022/03/28 06:06:43;;;;;;;;;53.75;43.00;;;;;14.54;53.02;101688.72;5057000;28;45469;-52
2022/03/28 06:09:09;;;;;;;;;54.75;43.25;;;;;14.50;52.85;101682.78;5056125;28;45815;-57
2022/03/28 06:11:35;;;;;;;;;45.75;38.00;;;;;14.67;52.99;101709.09;5056628;28;45363;-53
2022/03/28 06:14:01;;;;;;;;;53.50;41.50;;;;;14.60;53.17;101709.09;5056619;28;45984;-53
2022/03/28 06:16:26;;;;;;;;;54.25;39.50;;;;;14.63;53.23;101697.63;5056434;28;45442;-53
2022/03/28 06:18:52;;;;;;;;;51.25;38.75;;;;;14.71;53.09;101713.13;5056696;28;45325;-50
2022/03/28 06:21:17;;;;;;;;;55.00;43.50;;;;;14.79;52.83;101698.25;5056807;28;45335;-52
2022/03/28 06:23:43;;;;;;;;;56.75;45.00;;;;;14.80;52.83;101694.41;5056394;28;45403;-54
2022/03/28 06:26:10;;;;;;;;;53.75;41.50;;;;;14.90;52.39;101703.13;5071649;28;45490;-50
2022/03/28 06:28:40;;;;;;;;;50.75;39.50;;;;;14.93;52.22;101697.13;5056716;28;45213;-53
2022/03/28 06:31:08;;;;;;;;;56.25;44.75;;;;;14.95;52.30;101705.22;5056601;28;45457;-55
2022/03/28 06:33:34;;;;;;;;;55.00;41.80;;;;;14.95;52.66;101708.84;5056291;28;46127;-51
2022/03/28 06:36:00;;;;;;;;;50.50;40.50;;;;;14.77;52.15;101668.94;5056312;28;45390;-54
2022/03/28 06:38:25;;;;;;;;;55.75;44.25;;;;;14.94;52.55;101695.22;5056593;28;45338;-58
2022/03/28 06:40:51;;;;;;;;;52.00;41.00;;;;;14.84;52.98;101704.81;5021351;28;45403;-50
2022/03/28 06:43:16;;;;;;;;;57.25;43.00;;;;;14.86;52.31;101699.94;5056063;28;45661;-53
2022/03/28 06:45:42;;;;;;;;;58.00;44.25;;;;;14.91;52.54;101696.53;5055877;28;45937;-53
2022/03/28 06:48:08;;;;;;;;;58.25;44.25;;;;;14.96;52.42;101704.16;5056152;28;45714;-55
2022/03/28 06:50:34;;;;;;;;;55.75;41.25;;;;;14.97;52.42;101701.19;5056167;28;45477;-54
2022/03/28 06:53:00;;;;;;;;;55.75;46.00;;;;;15.02;52.27;101694.97;5055897;28;46164;-54
2022/03/28 06:55:26;;;;;;;;;54.25;43.75;;;;;14.83;52.57;101658.06;5055327;28;45472;-56
2022/03/28 06:57:51;;;;;;;;;54.00;43.00;;;;;15.02;52.31;101695.84;5056081;28;45682;-56
2022/03/28 07:00:17;;;;;;;;;54.50;41.75;;;;;14.75;52.84;101671.06;5037999;28;45390;-53
2022/03/28 07:02:43;;;;;;;;;56.25;42.25;;;;;14.93;52.20;101694.38;5054882;28;45785;-50
2022/03/28 07:05:09;;;;;;;;;56.75;43.00;;;;;14.98;52.70;101694.56;5055799;28;45543;-53
2022/03/28 07:07:47;;;;;;;;;53.25;42.00;;;;;15.03;52.48;101692.00;5056141;28;45374;-55
2022/03/28 07:10:14;;;;;;;;;61.25;46.75;;;;;15.09;52.52;101686.69;5015516;28;45395;-50
2022/03/28 07:12:39;;;;;;;;;57.50;45.25;;;;;15.11;52.46;101682.59;5055952;28;45401;-49
2022/03/28 07:15:06;;;;;;;;;57.00;47.00;;;;;15.06;51.77;101671.38;5055482;28;45472;-53
2022/03/28 07:17:33;;;;;;;;;58.50;42.50;;;;;15.13;52.09;101682.38;5056165;28;45455;-53
2022/03/28 07:19:59;;;;;;;;;57.25;47.00;;;;;15.09;52.54;101678.38;5038528;28;45516;-53
2022/03/28 07:22:24;;;;;;;;;62.00;46.00;;;;;15.13;52.39;101676.84;5036769;28;47640;-56
2022/03/28 07:24:50;;;;;;;;;61.50;42.75;;;;;15.06;52.04;101678.81;5055386;28;45212;-52
2022/03/28 07:27:17;;;;;;;;;59.75;46.00;;;;;15.13;52.40;101686.00;5055365;28;45260;-51
2022/03/28 07:29:43;;;;;;;;;56.00;45.00;;;;;15.15;51.88;101681.09;5056015;28;45326;-52
2022/03/28 07:32:09;;;;;;;;;61.00;48.00;;;;;15.06;52.96;101685.19;5055339;28;45461;-51
2022/03/28 07:34:35;;;;;;;;;59.00;46.25;;;;;14.83;52.56;101647.03;5037720;28;45430;-53
2022/03/28 07:37:09;;;;;;;;;58.50;46.50;;;;;15.14;51.87;101682.19;5055455;28;45371;-50
2022/03/28 07:39:38;;;;;;;;;60.50;46.50;;;;;15.15;52.54;101683.00;5055214;28;45508;-53
2022/03/28 07:42:07;;;;;;;;;60.50;46.75;;;;;15.06;52.87;101671.38;5054946;28;46901;-52
2022/03/28 07:44:33;;;;;;;;;58.00;45.50;;;;;15.16;52.50;101679.19;5055394;28;45369;-56
2022/03/28 07:46:59;;;;;;;;;63.00;46.75;;;;;15.09;52.02;101648.81;5054171;28;45693;-52
2022/03/28 07:49:24;;;;;;;;;60.00;45.25;;;;;15.29;51.96;101675.50;5055572;28;45458;-55
2022/03/28 07:51:50;;;;;;;;;51.50;41.75;;;;;15.14;51.59;101639.84;5037362;28;47784;-54
2022/03/28 07:54:16;;;;;;;;;62.75;46.50;;;;;15.40;51.69;101676.72;5020311;28;45518;-53
2022/03/28 07:56:41;;;;;;;;;59.50;46.50;;;;;15.42;52.18;101680.97;5054875;28;45430;-53
2022/03/28 07:59:07;;;;;;;;;59.25;47.75;;;;;15.47;51.87;101671.16;5031048;28;46436;-57
2022/03/28 08:01:32;;;;;;;;;54.75;45.00;;;;;15.55;51.00;101673.66;5002179;28;45683;-55
2022/03/28 08:03:58;;;;;;;;;60.25;46.00;;;;;15.36;51.33;101636.75;5049144;28;45811;-58
2022/03/28 08:06:24;;;;;;;;;60.50;46.25;;;;;15.61;50.67;101663.59;5050095;28;45453;-62
2022/03/28 08:08:49;;;;;;;;;56.75;45.75;;;;;15.68;50.51;101675.47;5051091;28;45506;-59
2022/03/28 08:11:15;;;;;;;;;57.25;45.50;;;;;15.13;50.98;101585.63;5022611;28;45892;-59
2022/03/28 08:13:41;;;;;;;;;60.75;45.25;;;;;15.71;50.62;101675.03;5049167;28;45782;-57
2022/03/28 08:16:08;;;;;;;;;54.00;44.75;;;;;15.72;50.54;101677.59;5047900;28;45491;-59
2022/03/28 08:18:36;;;;;;;;;61.00;46.25;;;;;15.68;50.33;101656.09;5064259;28;45657;-56
2022/03/28 08:21:01;;;;;;;;;58.00;46.25;;;;;15.79;50.37;101669.22;5042355;28;46265;-60
2022/03/28 08:23:27;;;;;;;;;58.25;45.50;;;;;15.85;49.81;101668.31;5015906;28;45373;-58
2022/03/28 08:25:53;;;;;;;;;56.75;42.75;;;;;15.68;49.44;101639.50;5030685;28;45450;-56
2022/03/28 08:28:18;;;;;;;;;55.00;43.00;;;;;15.88;49.84;101667.03;5049152;28;45375;-58
2022/03/28 08:30:44;;;;;;;;;52.75;43.75;;;;;15.94;49.05;101666.16;5049954;28;46281;-60
2022/03/28 08:33:09;;;;;;;;;53.00;42.75;;;;;15.52;48.86;101575.34;5067329;28;45452;-60
2022/03/28 08:35:37;;;;;;;;;58.00;47.00;;;;;16.03;48.61;101650.13;5053504;28;45413;-59
2022/03/28 08:38:02;;;;;;;;;57.50;44.00;;;;;16.08;48.97;101647.53;5052115;28;45517;-61
2022/03/28 08:40:28;;;;;;;;;56.00;43.50;;;;;16.07;49.07;101650.53;5067980;28;46035;-57
2022/03/28 08:42:53;;;;;;;;;60.25;47.00;;;;;16.09;48.96;101652.00;5035295;28;45482;-58
2022/03/28 08:45:19;;;;;;;;;63.25;48.00;;;;;16.13;49.03;101647.66;5048886;28;45498;-56
2022/03/28 08:47:49;;;;;;;;;61.75;48.50;;;;;16.08;49.06;101633.69;5048526;28;45482;-58
2022/03/28 08:50:15;;;;;;;;;63.75;48.25;;;;;16.24;48.93;101643.31;5051006;28;46317;-54
2022/03/28 08:52:41;;;;;;;;;64.25;50.75;;;;;16.16;48.72;101621.44;5050957;28;45512;-55
2022/03/28 08:55:10;;;;;;;;;62.50;51.00;;;;;16.33;48.85;101634.72;5052619;28;45496;-57
2022/03/28 08:57:36;;;;;;;;;65.50;51.00;;;;;16.45;48.65;101648.66;5053137;28;45494;-55
2022/03/28 09:00:12;;;;;;;;;62.50;49.00;;;;;16.47;48.68;101643.72;5042318;28;46034;-55
2022/03/28 09:02:37;;;;;;;;;60.25;48.50;;;;;16.47;48.68;101640.94;5051033;28;45327;-59
2022/03/28 09:05:04;;;;;;;;;61.50;48.50;;;;;16.53;48.46;101645.56;5050173;28;45864;-56
2022/03/28 09:07:29;;;;;;;;;63.50;49.00;;;;;16.59;47.68;101633.56;5066993;28;45501;-55
2022/03/28 09:10:21;;;;;;;;;60.00;47.00;;;;;16.69;47.22;101646.06;5052815;28;45654;-55
2022/03/28 09:13:09;;;;;;;;;63.00;47.50;;;;;16.73;47.37;101639.81;5048983;28;45418;-62
2022/03/28 09:15:57;;;;;;;;;57.50;46.00;;;;;16.85;46.88;101642.66;5033354;28;45465;-55
2022/03/28 09:18:30;;;;;;;;;59.50;45.25;;;;;16.76;46.51;101617.16;5049844;28;46057;-59
2022/03/28 09:21:02;;;;;;;;;64.75;49.00;;;;;17.01;46.99;101649.50;5022814;28;45954;-59
2022/03/28 09:23:39;;;;;;;;;67.25;49.00;;;;;16.99;46.61;101640.56;5053495;28;45321;-55
2022/03/28 09:26:06;;;;;;;;;63.00;48.50;;;;;17.07;46.77;101633.84;5053201;28;45813;-54
2022/03/28 09:28:37;;;;;;;;;65.00;51.25;;;;;17.19;46.36;101637.53;5053696;28;45370;-59
2022/03/28 09:31:37;;;;;;;;;64.50;51.00;;;;;17.24;45.98;101634.06;5051716;28;46176;-58
2022/03/28 09:34:03;;;;;;;;;61.50;47.50;;;;;17.40;45.89;101634.47;5050134;28;45484;-56
2022/03/28 09:36:40;;;;;;;;;61.50;48.50;;;;;17.42;45.31;101635.09;5053060;28;45464;-57
2022/03/28 09:39:09;;;;;;;;;64.75;48.25;;;;;17.09;45.41;101555.97;5051591;28;45759;-59
2022/03/28 09:41:35;;;;;;;;;65.50;50.00;;;;;17.63;45.01;101621.75;5051390;28;45563;-59
2022/03/28 09:44:01;;;;;;;;;60.00;48.75;;;;;17.74;44.74;101623.69;5034151;28;45413;-56
2022/03/28 09:46:27;;;;;;;;;60.50;46.75;;;;;17.79;44.52;101612.72;5051499;28;45449;-59
2022/03/28 09:48:53;;;;;;;;;64.75;50.00;;;;;17.79;43.82;101589.66;5051065;28;45599;-58
2022/03/28 09:51:21;;;;;;;;;59.75;46.50;;;;;17.93;42.33;101596.66;5051203;28;46198;-55
2022/03/28 09:53:47;;;;;;;;;59.80;45.00;;;;;18.11;41.37;101603.22;5050775;28;45454;-60
2022/03/28 09:56:12;;;;;;;;;56.00;44.00;;;;;18.25;41.07;101620.50;5023526;28;45543;-56
2022/03/28 09:58:45;;;;;;;;;56.25;45.25;;;;;18.36;41.11;101614.06;5053084;28;45453;-53
2022/03/28 10:01:27;;;;;;;;;58.75;44.25;;;;;18.40;41.28;101601.41;5041491;28;45962;-59
2022/03/28 10:04:05;;;;;;;;;58.00;43.40;;;;;18.48;39.88;101607.66;5052158;28;45815;-58
2022/03/28 10:06:38;;;;;;;;;59.50;45.25;;;;;18.59;39.64;101600.38;5048644;28;45660;-57
2022/03/28 10:09:07;;;;;;;;;50.75;40.25;;;;;18.69;38.94;101608.97;5052700;28;45889;-55
2022/03/28 10:11:33;;;;;;;;;51.20;40.60;;;;;18.76;38.73;101586.56;5052298;28;46987;-61
2022/03/28 10:13:58;;;;;;;;;51.50;41.00;;;;;18.71;37.78;101562.28;5052407;28;45376;-60
2022/03/28 10:16:24;;;;;;;;;45.50;36.00;;;;;18.99;37.13;101596.75;5052569;28;45492;-57
2022/03/28 10:18:50;;;;;;;;;48.25;36.00;;;;;19.09;37.17;101588.66;5051639;28;45873;-61
2022/03/28 10:21:24;;;;;;;;;48.75;38.00;;;;;19.08;36.61;101555.50;5050785;28;46247;-57
2022/03/28 10:24:11;;;;;;;;;51.40;40.20;;;;;19.31;36.40;101582.38;5046013;28;45469;-60
2022/03/28 10:26:38;;;;;;;;;43.60;35.20;;;;;18.76;36.47;101469.78;5024130;28;45816;-59
2022/03/28 10:29:09;;;;;;;;;45.80;38.80;;;;;19.46;35.29;101576.22;5082767;27;45502;-59
2022/03/28 10:31:55;;;;;;;;;44.60;35.20;;;;;19.47;35.35;101549.22;5049634;28;45448;-54
2022/03/28 10:35:01;;;;;;;;;41.20;32.80;;;;;19.78;33.53;101569.22;5051043;28;45745;-58
2022/03/28 10:37:53;;;;;;;;;45.80;35.80;;;;;19.86;34.09;101556.81;5052248;28;45404;-57
2022/03/28 10:40:24;;;;;;;;;45.40;34.80;;;;;19.80;33.65;101532.75;5052369;28;45868;-54
2022/03/28 10:43:12;;;;;;;;;39.40;33.60;;;;;20.04;33.51;101548.22;5051144;28;46556;-57
2022/03/28 10:45:57;;;;;;;;;40.40;34.80;;;;;20.14;33.01;101544.72;5050446;28;45544;-60
2022/03/28 10:48:47;;;;;;;;;46.60;35.80;;;;;20.24;33.52;101541.25;5050901;28;45822;-56
2022/03/28 10:51:15;;;;;;;;;45.00;34.60;;;;;20.34;33.62;101543.31;5052237;28;45397;-59
2022/03/28 10:53:46;;;;;;;;;45.80;36.20;;;;;20.44;33.62;101531.47;5048807;28;46158;-60
2022/03/28 10:56:17;;;;;;;;;47.40;37.80;;;;;20.33;33.04;101496.19;5046221;28;45812;-55
2022/03/28 10:58:48;;;;;;;;;46.00;33.00;;;;;;;;5051421;28;45786;-57
2022/03/28 11:01:15;;;;;;;;;42.40;35.00;;;;;20.72;32.68;101515.59;5020633;28;45928;-59
2022/03/28 11:04:00;;;;;;;;;39.40;34.60;;;;;20.81;31.71;101521.56;5030918;28;46604;-59
2022/03/28 11:06:45;;;;;;;;;46.60;37.00;;;;;20.91;32.00;101506.91;5048744;28;45487;-60
2022/03/28 11:09:10;;;;;;;;;41.20;33.40;;;;;21.03;31.18;101503.94;5050078;28;45860;-60
2022/03/28 11:11:36;;;;;;;;;36.25;32.75;;;;;20.93;30.27;101482.38;5048610;28;45541;-59
2022/03/28 11:14:08;;;;;;;;;38.00;32.25;;;;;21.12;29.25;101499.56;5050830;28;46925;-60